sensor_id;sensor_type;location;lat;lon;timestamp;P1;durP1;ratioP1;P2;durP2;ratioP2
75320;SDS011;68337;52.196;5.660;2023-04-01T00:00:21;13.77;;;11.10;;
75320;SDS011;68337;52.196;5.660;2023-04-01T00:02:47;14.82;;;11.02;;
75320;SDS011;68337;52.196;5.660;2023-04-01T00:05:13;13.25;;;10.32;;
75320;SDS011;68337;52.196;5.660;2023-04-01T00:07:39;13.80;;;11.80;;
75320;SDS011;68337;52.196;5.660;2023-04-01T00:10:06;14.25;;;11.02;;
75320;SDS011;68337;52.196;5.660;2023-04-01T00:12:35;15.70;;;12.23;;
75320;SDS011;68337;52.196;5.660;2023-04-01T00:15:01;17.52;;;12.50;;
75320;SDS011;68337;52.196;5.660;2023-04-01T00:17:28;20.05;;;13.13;;
75320;SDS011;68337;52.196;5.660;2023-04-01T00:19:54;18.20;;;12.93;;
75320;SDS011;68337;52.196;5.660;2023-04-01T00:22:21;16.77;;;13.77;;
75320;SDS011;68337;52.196;5.660;2023-04-01T00:24:47;23.10;;;13.23;;
75320;SDS011;68337;52.196;5.660;2023-04-01T00:27:13;15.35;;;13.30;;
75320;SDS011;68337;52.196;5.660;2023-04-01T00:29:41;17.17;;;13.63;;
75320;SDS011;68337;52.196;5.660;2023-04-01T00:32:08;19.48;;;13.32;;
75320;SDS011;68337;52.196;5.660;2023-04-01T00:34:34;20.35;;;14.30;;
75320;SDS011;68337;52.196;5.660;2023-04-01T00:37:00;18.88;;;14.73;;
75320;SDS011;68337;52.196;5.660;2023-04-01T00:39:28;22.98;;;14.63;;
75320;SDS011;68337;52.196;5.660;2023-04-01T00:41:54;20.92;;;13.80;;
75320;SDS011;68337;52.196;5.660;2023-04-01T00:44:31;25.83;;;15.10;;
75320;SDS011;68337;52.196;5.660;2023-04-01T00:46:59;23.85;;;16.08;;
75320;SDS011;68337;52.196;5.660;2023-04-01T00:49:26;26.00;;;17.20;;
75320;SDS011;68337;52.196;5.660;2023-04-01T00:52:10;23.52;;;15.25;;
75320;SDS011;68337;52.196;5.660;2023-04-01T00:54:39;24.20;;;16.73;;
75320;SDS011;68337;52.196;5.660;2023-04-01T00:57:09;23.05;;;15.93;;
75320;SDS011;68337;52.196;5.660;2023-04-01T00:59:40;21.88;;;15.60;;
75320;SDS011;68337;52.196;5.660;2023-04-01T01:02:10;23.50;;;15.60;;
75320;SDS011;68337;52.196;5.660;2023-04-01T01:04:37;28.55;;;16.65;;
75320;SDS011;68337;52.196;5.660;2023-04-01T01:15:47;27.92;;;17.00;;
75320;SDS011;68337;52.196;5.660;2023-04-01T01:27:12;27.08;;;16.35;;
75320;SDS011;68337;52.196;5.660;2023-04-01T01:29:45;33.30;;;17.65;;
75320;SDS011;68337;52.196;5.660;2023-04-01T01:35:20;31.70;;;17.52;;
75320;SDS011;68337;52.196;5.660;2023-04-01T01:37:59;30.35;;;16.95;;
75320;SDS011;68337;52.196;5.660;2023-04-01T01:40:28;29.50;;;17.67;;
75320;SDS011;68337;52.196;5.660;2023-04-01T01:42:58;32.53;;;17.60;;
75320;SDS011;68337;52.196;5.660;2023-04-01T01:45:28;35.80;;;19.08;;
75320;SDS011;68337;52.196;5.660;2023-04-01T01:47:56;34.65;;;18.42;;
75320;SDS011;68337;52.196;5.660;2023-04-01T01:50:25;37.15;;;18.02;;
75320;SDS011;68337;52.196;5.660;2023-04-01T01:52:59;32.15;;;18.25;;
75320;SDS011;68337;52.196;5.660;2023-04-01T01:55:42;40.58;;;19.55;;
75320;SDS011;68337;52.196;5.660;2023-04-01T01:58:15;40.53;;;20.17;;
75320;SDS011;68337;52.196;5.660;2023-04-01T02:00:49;32.35;;;19.83;;
75320;SDS011;68337;52.196;5.660;2023-04-01T02:03:17;40.70;;;21.35;;
75320;SDS011;68337;52.196;5.660;2023-04-01T02:05:46;34.72;;;21.58;;
75320;SDS011;68337;52.196;5.660;2023-04-01T02:08:13;39.60;;;22.10;;
75320;SDS011;68337;52.196;5.660;2023-04-01T02:10:45;40.45;;;22.58;;
75320;SDS011;68337;52.196;5.660;2023-04-01T02:13:29;33.30;;;21.05;;
75320;SDS011;68337;52.196;5.660;2023-04-01T02:16:02;35.05;;;18.58;;
75320;SDS011;68337;52.196;5.660;2023-04-01T02:18:33;30.50;;;17.33;;
75320;SDS011;68337;52.196;5.660;2023-04-01T02:21:02;27.25;;;15.80;;
75320;SDS011;68337;52.196;5.660;2023-04-01T02:23:29;28.27;;;14.88;;
75320;SDS011;68337;52.196;5.660;2023-04-01T02:25:58;26.02;;;16.48;;
75320;SDS011;68337;52.196;5.660;2023-04-01T02:28:24;22.48;;;15.45;;
75320;SDS011;68337;52.196;5.660;2023-04-01T02:30:51;24.23;;;15.93;;
75320;SDS011;68337;52.196;5.660;2023-04-01T02:33:18;24.98;;;16.15;;
75320;SDS011;68337;52.196;5.660;2023-04-01T02:35:45;21.58;;;14.55;;
75320;SDS011;68337;52.196;5.660;2023-04-01T02:38:11;16.55;;;12.10;;
75320;SDS011;68337;52.196;5.660;2023-04-01T02:40:41;16.50;;;11.00;;
75320;SDS011;68337;52.196;5.660;2023-04-01T02:43:16;16.42;;;10.73;;
75320;SDS011;68337;52.196;5.660;2023-04-01T02:45:44;12.95;;;10.02;;
75320;SDS011;68337;52.196;5.660;2023-04-01T02:48:09;18.35;;;11.05;;
75320;SDS011;68337;52.196;5.660;2023-04-01T02:50:35;17.77;;;11.88;;
75320;SDS011;68337;52.196;5.660;2023-04-01T02:53:01;19.10;;;12.77;;
75320;SDS011;68337;52.196;5.660;2023-04-01T02:55:28;16.67;;;12.20;;
75320;SDS011;68337;52.196;5.660;2023-04-01T02:57:55;17.05;;;12.30;;
75320;SDS011;68337;52.196;5.660;2023-04-01T03:00:21;18.67;;;13.75;;
75320;SDS011;68337;52.196;5.660;2023-04-01T03:02:47;19.27;;;13.50;;
75320;SDS011;68337;52.196;5.660;2023-04-01T03:05:12;22.35;;;14.57;;
75320;SDS011;68337;52.196;5.660;2023-04-01T03:07:38;17.55;;;13.23;;
75320;SDS011;68337;52.196;5.660;2023-04-01T03:10:05;13.93;;;12.23;;
75320;SDS011;68337;52.196;5.660;2023-04-01T03:12:31;13.10;;;10.70;;
75320;SDS011;68337;52.196;5.660;2023-04-01T03:14:57;15.32;;;11.40;;
75320;SDS011;68337;52.196;5.660;2023-04-01T03:17:22;11.50;;;9.60;;
75320;SDS011;68337;52.196;5.660;2023-04-01T03:19:48;14.60;;;10.73;;
75320;SDS011;68337;52.196;5.660;2023-04-01T03:22:14;16.88;;;11.23;;
75320;SDS011;68337;52.196;5.660;2023-04-01T03:24:40;14.15;;;10.30;;
75320;SDS011;68337;52.196;5.660;2023-04-01T03:27:05;14.75;;;10.65;;
75320;SDS011;68337;52.196;5.660;2023-04-01T03:29:31;17.05;;;11.55;;
75320;SDS011;68337;52.196;5.660;2023-04-01T03:31:57;15.02;;;12.05;;
75320;SDS011;68337;52.196;5.660;2023-04-01T03:34:24;14.43;;;10.68;;
75320;SDS011;68337;52.196;5.660;2023-04-01T03:36:51;14.80;;;11.35;;
75320;SDS011;68337;52.196;5.660;2023-04-01T03:39:17;17.10;;;10.85;;
75320;SDS011;68337;52.196;5.660;2023-04-01T03:41:45;14.25;;;11.02;;
75320;SDS011;68337;52.196;5.660;2023-04-01T03:44:11;13.20;;;11.15;;
75320;SDS011;68337;52.196;5.660;2023-04-01T03:46:37;13.07;;;10.45;;
75320;SDS011;68337;52.196;5.660;2023-04-01T03:49:06;10.98;;;9.80;;
75320;SDS011;68337;52.196;5.660;2023-04-01T03:51:42;13.85;;;10.98;;
75320;SDS011;68337;52.196;5.660;2023-04-01T03:54:08;12.20;;;9.63;;
75320;SDS011;68337;52.196;5.660;2023-04-01T03:56:35;12.55;;;9.77;;
75320;SDS011;68337;52.196;5.660;2023-04-01T03:59:02;12.95;;;10.38;;
75320;SDS011;68337;52.196;5.660;2023-04-01T04:01:29;12.30;;;10.02;;
75320;SDS011;68337;52.196;5.660;2023-04-01T04:03:55;11.05;;;9.27;;
75320;SDS011;68337;52.196;5.660;2023-04-01T04:06:22;11.82;;;9.45;;
75320;SDS011;68337;52.196;5.660;2023-04-01T04:08:48;11.55;;;9.90;;
75320;SDS011;68337;52.196;5.660;2023-04-01T04:11:15;13.57;;;10.70;;
75320;SDS011;68337;52.196;5.660;2023-04-01T04:13:41;10.60;;;9.52;;
75320;SDS011;68337;52.196;5.660;2023-04-01T04:16:07;13.07;;;10.20;;
75320;SDS011;68337;52.196;5.660;2023-04-01T04:18:35;12.68;;;9.18;;
75320;SDS011;68337;52.196;5.660;2023-04-01T04:21:01;12.82;;;10.27;;
75320;SDS011;68337;52.196;5.660;2023-04-01T04:23:27;13.38;;;9.98;;
75320;SDS011;68337;52.196;5.660;2023-04-01T04:25:59;12.15;;;9.80;;
75320;SDS011;68337;52.196;5.660;2023-04-01T04:28:29;13.63;;;10.35;;
75320;SDS011;68337;52.196;5.660;2023-04-01T04:30:56;11.93;;;9.48;;
75320;SDS011;68337;52.196;5.660;2023-04-01T04:33:22;13.30;;;9.88;;
75320;SDS011;68337;52.196;5.660;2023-04-01T04:35:48;14.05;;;9.65;;
75320;SDS011;68337;52.196;5.660;2023-04-01T04:38:14;13.63;;;10.98;;
75320;SDS011;68337;52.196;5.660;2023-04-01T04:40:40;15.65;;;10.95;;
75320;SDS011;68337;52.196;5.660;2023-04-01T04:43:07;15.18;;;10.80;;
75320;SDS011;68337;52.196;5.660;2023-04-01T04:45:35;15.77;;;10.77;;
75320;SDS011;68337;52.196;5.660;2023-04-01T04:48:00;19.77;;;11.88;;
75320;SDS011;68337;52.196;5.660;2023-04-01T04:50:26;20.38;;;12.02;;
75320;SDS011;68337;52.196;5.660;2023-04-01T04:52:52;16.45;;;10.85;;
75320;SDS011;68337;52.196;5.660;2023-04-01T04:55:17;17.83;;;11.50;;
75320;SDS011;68337;52.196;5.660;2023-04-01T04:57:43;20.25;;;12.45;;
75320;SDS011;68337;52.196;5.660;2023-04-01T05:00:09;22.90;;;12.88;;
75320;SDS011;68337;52.196;5.660;2023-04-01T05:02:35;25.17;;;13.07;;
75320;SDS011;68337;52.196;5.660;2023-04-01T05:05:01;27.00;;;13.73;;
75320;SDS011;68337;52.196;5.660;2023-04-01T05:07:27;21.10;;;12.57;;
75320;SDS011;68337;52.196;5.660;2023-04-01T05:09:53;22.50;;;13.05;;
75320;SDS011;68337;52.196;5.660;2023-04-01T05:12:18;24.25;;;12.05;;
75320;SDS011;68337;52.196;5.660;2023-04-01T05:14:45;21.67;;;12.75;;
75320;SDS011;68337;52.196;5.660;2023-04-01T05:17:10;22.92;;;12.85;;
75320;SDS011;68337;52.196;5.660;2023-04-01T05:19:37;21.30;;;11.43;;
75320;SDS011;68337;52.196;5.660;2023-04-01T05:22:04;22.40;;;12.60;;
75320;SDS011;68337;52.196;5.660;2023-04-01T05:24:30;25.52;;;12.50;;
75320;SDS011;68337;52.196;5.660;2023-04-01T05:26:57;21.67;;;12.73;;
75320;SDS011;68337;52.196;5.660;2023-04-01T05:29:23;23.90;;;12.80;;
75320;SDS011;68337;52.196;5.660;2023-04-01T05:31:50;23.63;;;13.73;;
75320;SDS011;68337;52.196;5.660;2023-04-01T05:34:15;26.52;;;13.10;;
75320;SDS011;68337;52.196;5.660;2023-04-01T05:36:42;31.45;;;14.13;;
75320;SDS011;68337;52.196;5.660;2023-04-01T05:39:08;30.13;;;14.00;;
75320;SDS011;68337;52.196;5.660;2023-04-01T05:41:34;32.83;;;14.93;;
75320;SDS011;68337;52.196;5.660;2023-04-01T05:44:01;34.60;;;14.60;;
75320;SDS011;68337;52.196;5.660;2023-04-01T05:46:27;32.13;;;13.77;;
75320;SDS011;68337;52.196;5.660;2023-04-01T05:48:55;25.92;;;13.20;;
75320;SDS011;68337;52.196;5.660;2023-04-01T05:51:21;33.35;;;15.27;;
75320;SDS011;68337;52.196;5.660;2023-04-01T05:53:48;28.02;;;14.35;;
75320;SDS011;68337;52.196;5.660;2023-04-01T05:56:13;29.83;;;14.35;;
75320;SDS011;68337;52.196;5.660;2023-04-01T05:58:39;35.55;;;17.15;;
75320;SDS011;68337;52.196;5.660;2023-04-01T06:01:09;36.40;;;15.98;;
75320;SDS011;68337;52.196;5.660;2023-04-01T06:03:36;34.05;;;16.90;;
75320;SDS011;68337;52.196;5.660;2023-04-01T06:06:02;39.92;;;15.80;;
75320;SDS011;68337;52.196;5.660;2023-04-01T06:08:29;33.00;;;14.85;;
75320;SDS011;68337;52.196;5.660;2023-04-01T06:11:12;36.95;;;17.25;;
75320;SDS011;68337;52.196;5.660;2023-04-01T06:13:56;33.17;;;15.98;;
75320;SDS011;68337;52.196;5.660;2023-04-01T06:35:29;28.60;;;13.73;;
75320;SDS011;68337;52.196;5.660;2023-04-01T06:40:58;36.58;;;15.85;;
75320;SDS011;68337;52.196;5.660;2023-04-01T06:54:30;31.13;;;15.18;;
75320;SDS011;68337;52.196;5.660;2023-04-01T07:00:04;24.98;;;13.85;;
75320;SDS011;68337;52.196;5.660;2023-04-01T07:02:48;27.00;;;12.02;;
75320;SDS011;68337;52.196;5.660;2023-04-01T07:05:30;26.52;;;12.88;;
75320;SDS011;68337;52.196;5.660;2023-04-01T07:07:58;27.08;;;11.68;;
75320;SDS011;68337;52.196;5.660;2023-04-01T07:13:13;22.58;;;10.85;;
75320;SDS011;68337;52.196;5.660;2023-04-01T07:15:51;15.90;;;8.00;;
75320;SDS011;68337;52.196;5.660;2023-04-01T07:18:32;11.35;;;6.53;;
75320;SDS011;68337;52.196;5.660;2023-04-01T07:21:04;12.07;;;7.00;;
75320;SDS011;68337;52.196;5.660;2023-04-01T07:23:42;11.60;;;7.03;;
75320;SDS011;68337;52.196;5.660;2023-04-01T07:26:20;11.73;;;7.20;;
75320;SDS011;68337;52.196;5.660;2023-04-01T07:28:48;8.95;;;6.47;;
75320;SDS011;68337;52.196;5.660;2023-04-01T07:31:18;9.90;;;5.70;;
75320;SDS011;68337;52.196;5.660;2023-04-01T07:36:43;6.15;;;3.95;;
75320;SDS011;68337;52.196;5.660;2023-04-01T07:50:39;1.98;;;1.73;;
75320;SDS011;68337;52.196;5.660;2023-04-01T07:56:38;1.73;;;1.63;;
75320;SDS011;68337;52.196;5.660;2023-04-01T08:04:34;1.70;;;1.60;;
75320;SDS011;68337;52.196;5.660;2023-04-01T08:15:23;3.38;;;1.52;;
75320;SDS011;68337;52.196;5.660;2023-04-01T08:22:57;2.72;;;2.38;;
75320;SDS011;68337;52.196;5.660;2023-04-01T08:25:33;2.75;;;2.40;;
75320;SDS011;68337;52.196;5.660;2023-04-01T08:30:51;2.88;;;2.67;;
75320;SDS011;68337;52.196;5.660;2023-04-01T08:33:33;3.38;;;2.95;;
75320;SDS011;68337;52.196;5.660;2023-04-01T08:36:02;3.22;;;2.92;;
75320;SDS011;68337;52.196;5.660;2023-04-01T08:46:47;3.22;;;2.78;;
75320;SDS011;68337;52.196;5.660;2023-04-01T08:52:36;3.38;;;3.08;;
75320;SDS011;68337;52.196;5.660;2023-04-01T09:00:32;4.53;;;3.33;;
75320;SDS011;68337;52.196;5.660;2023-04-01T09:03:13;4.78;;;3.63;;
75320;SDS011;68337;52.196;5.660;2023-04-01T09:11:30;5.85;;;5.10;;
75320;SDS011;68337;52.196;5.660;2023-04-01T09:14:38;6.22;;;4.50;;
75320;SDS011;68337;52.196;5.660;2023-04-01T09:31:26;6.60;;;5.85;;
75320;SDS011;68337;52.196;5.660;2023-04-01T10:20:21;3.67;;;3.38;;
75320;SDS011;68337;52.196;5.660;2023-04-01T10:23:18;3.28;;;2.97;;
75320;SDS011;68337;52.196;5.660;2023-04-01T10:31:27;2.65;;;2.45;;
75320;SDS011;68337;52.196;5.660;2023-04-01T10:53:34;2.75;;;2.55;;
75320;SDS011;68337;52.196;5.660;2023-04-01T11:07:22;2.20;;;2.00;;
75320;SDS011;68337;52.196;5.660;2023-04-01T11:12:51;3.35;;;2.75;;
75320;SDS011;68337;52.196;5.660;2023-04-01T11:30:24;3.88;;;3.30;;
75320;SDS011;68337;52.196;5.660;2023-04-01T11:33:19;5.47;;;3.92;;
75320;SDS011;68337;52.196;5.660;2023-04-01T11:36:00;3.85;;;3.55;;
75320;SDS011;68337;52.196;5.660;2023-04-01T11:42:40;4.70;;;4.35;;
75320;SDS011;68337;52.196;5.660;2023-04-01T11:51:02;4.55;;;4.18;;
75320;SDS011;68337;52.196;5.660;2023-04-01T12:05:15;5.72;;;4.55;;
75320;SDS011;68337;52.196;5.660;2023-04-01T12:08:06;4.35;;;3.92;;
75320;SDS011;68337;52.196;5.660;2023-04-01T12:11:05;4.15;;;3.85;;
75320;SDS011;68337;52.196;5.660;2023-04-01T12:13:55;4.00;;;3.70;;
75320;SDS011;68337;52.196;5.660;2023-04-01T12:16:39;4.53;;;4.13;;
75320;SDS011;68337;52.196;5.660;2023-04-01T12:19:35;5.00;;;4.10;;
75320;SDS011;68337;52.196;5.660;2023-04-01T12:27:58;4.78;;;4.38;;
75320;SDS011;68337;52.196;5.660;2023-04-01T12:46:32;4.13;;;3.75;;
75320;SDS011;68337;52.196;5.660;2023-04-01T13:12:15;4.20;;;3.90;;
75320;SDS011;68337;52.196;5.660;2023-04-01T13:15:05;3.83;;;3.40;;
75320;SDS011;68337;52.196;5.660;2023-04-01T13:23:37;3.30;;;3.10;;
75320;SDS011;68337;52.196;5.660;2023-04-01T14:16:48;5.68;;;5.18;;
75320;SDS011;68337;52.196;5.660;2023-04-01T14:27:55;6.32;;;5.72;;
75320;SDS011;68337;52.196;5.660;2023-04-01T14:30:36;5.47;;;4.97;;
75320;SDS011;68337;52.196;5.660;2023-04-01T14:36:47;5.57;;;5.07;;
75320;SDS011;68337;52.196;5.660;2023-04-01T14:39:15;6.65;;;6.13;;
75320;SDS011;68337;52.196;5.660;2023-04-01T14:50:14;6.40;;;5.80;;
75320;SDS011;68337;52.196;5.660;2023-04-01T14:53:13;5.97;;;5.47;;
75320;SDS011;68337;52.196;5.660;2023-04-01T14:56:03;5.82;;;5.32;;
75320;SDS011;68337;52.196;5.660;2023-04-01T14:58:47;7.85;;;5.40;;
75320;SDS011;68337;52.196;5.660;2023-04-01T15:01:35;5.32;;;4.60;;
75320;SDS011;68337;52.196;5.660;2023-04-01T15:24:29;4.70;;;4.40;;
75320;SDS011;68337;52.196;5.660;2023-04-01T15:40:24;4.00;;;3.70;;
75320;SDS011;68337;52.196;5.660;2023-04-01T15:45:42;4.60;;;4.30;;
75320;SDS011;68337;52.196;5.660;2023-04-01T15:48:13;4.20;;;3.90;;
75320;SDS011;68337;52.196;5.660;2023-04-01T15:51:17;4.18;;;3.90;;
75320;SDS011;68337;52.196;5.660;2023-04-01T15:59:44;5.35;;;4.85;;
75320;SDS011;68337;52.196;5.660;2023-04-01T16:11:08;4.72;;;4.43;;
75320;SDS011;68337;52.196;5.660;2023-04-01T16:22:32;4.57;;;4.22;;
75320;SDS011;68337;52.196;5.660;2023-04-01T16:30:39;5.53;;;5.03;;
75320;SDS011;68337;52.196;5.660;2023-04-01T16:41:34;5.32;;;4.82;;
75320;SDS011;68337;52.196;5.660;2023-04-01T16:46:45;7.03;;;6.25;;
75320;SDS011;68337;52.196;5.660;2023-04-01T16:54:52;6.13;;;5.43;;
75320;SDS011;68337;52.196;5.660;2023-04-01T16:57:43;6.03;;;5.53;;
75320;SDS011;68337;52.196;5.660;2023-04-01T17:05:39;5.90;;;5.40;;
75320;SDS011;68337;52.196;5.660;2023-04-01T17:08:14;6.40;;;5.90;;
75320;SDS011;68337;52.196;5.660;2023-04-01T17:19:21;6.38;;;5.88;;
75320;SDS011;68337;52.196;5.660;2023-04-01T17:24:46;7.10;;;6.50;;
75320;SDS011;68337;52.196;5.660;2023-04-01T17:27:44;6.30;;;5.70;;
75320;SDS011;68337;52.196;5.660;2023-04-01T17:38:34;6.20;;;5.70;;
75320;SDS011;68337;52.196;5.660;2023-04-01T17:49:33;6.82;;;6.32;;
75320;SDS011;68337;52.196;5.660;2023-04-01T17:58:28;7.10;;;6.50;;
75320;SDS011;68337;52.196;5.660;2023-04-01T18:01:04;6.85;;;6.28;;
75320;SDS011;68337;52.196;5.660;2023-04-01T18:06:29;7.28;;;6.63;;
75320;SDS011;68337;52.196;5.660;2023-04-01T18:22:44;6.82;;;6.32;;
75320;SDS011;68337;52.196;5.660;2023-04-01T18:25:21;8.40;;;6.30;;
75320;SDS011;68337;52.196;5.660;2023-04-01T18:30:41;6.90;;;6.30;;
75320;SDS011;68337;52.196;5.660;2023-04-01T18:33:24;7.93;;;6.30;;
75320;SDS011;68337;52.196;5.660;2023-04-01T18:38:44;6.45;;;5.82;;
75320;SDS011;68337;52.196;5.660;2023-04-01T18:41:31;6.65;;;6.15;;
75320;SDS011;68337;52.196;5.660;2023-04-01T18:47:08;6.43;;;5.93;;
75320;SDS011;68337;52.196;5.660;2023-04-01T18:52:41;6.50;;;6.00;;
75320;SDS011;68337;52.196;5.660;2023-04-01T19:04:00;6.55;;;6.05;;
75320;SDS011;68337;52.196;5.660;2023-04-01T19:06:48;6.38;;;5.82;;
75320;SDS011;68337;52.196;5.660;2023-04-01T19:18:23;7.10;;;6.50;;
75320;SDS011;68337;52.196;5.660;2023-04-01T19:37:23;6.97;;;6.30;;
75320;SDS011;68337;52.196;5.660;2023-04-01T19:43:27;7.10;;;6.50;;
75320;SDS011;68337;52.196;5.660;2023-04-01T19:48:35;7.15;;;6.50;;
75320;SDS011;68337;52.196;5.660;2023-04-01T19:51:28;7.35;;;6.68;;
75320;SDS011;68337;52.196;5.660;2023-04-01T19:54:19;6.97;;;6.38;;
75320;SDS011;68337;52.196;5.660;2023-04-01T19:56:59;8.30;;;7.50;;
75320;SDS011;68337;52.196;5.660;2023-04-01T20:07:52;10.60;;;8.77;;
75320;SDS011;68337;52.196;5.660;2023-04-01T20:14:09;10.80;;;9.70;;
75320;SDS011;68337;52.196;5.660;2023-04-01T20:16:09;10.43;;;9.35;;
75320;SDS011;68337;52.196;5.660;2023-04-01T20:18:37;11.40;;;10.30;;
75320;SDS011;68337;52.196;5.660;2023-04-01T20:21:19;12.18;;;10.98;;
75320;SDS011;68337;52.196;5.660;2023-04-01T20:23:59;11.73;;;10.20;;
75320;SDS011;68337;52.196;5.660;2023-04-01T20:26:36;12.02;;;10.90;;
75320;SDS011;68337;52.196;5.660;2023-04-01T20:46:22;11.73;;;10.55;;
75320;SDS011;68337;52.196;5.660;2023-04-01T20:57:21;12.38;;;10.57;;
75320;SDS011;68337;52.196;5.660;2023-04-01T21:03:06;11.73;;;10.43;;
75320;SDS011;68337;52.196;5.660;2023-04-01T21:08:49;12.63;;;11.32;;
75320;SDS011;68337;52.196;5.660;2023-04-01T21:41:32;11.60;;;9.60;;
75320;SDS011;68337;52.196;5.660;2023-04-01T21:49:19;13.77;;;10.55;;
75320;SDS011;68337;52.196;5.660;2023-04-01T21:55:20;10.88;;;9.75;;
75320;SDS011;68337;52.196;5.660;2023-04-01T22:05:40;13.15;;;10.07;;
75320;SDS011;68337;52.196;5.660;2023-04-01T22:25:18;13.35;;;11.63;;
75320;SDS011;68337;52.196;5.660;2023-04-01T22:28:00;13.90;;;12.40;;
75320;SDS011;68337;52.196;5.660;2023-04-01T22:30:33;14.05;;;12.57;;
75320;SDS011;68337;52.196;5.660;2023-04-01T22:40:39;13.20;;;11.68;;
75320;SDS011;68337;52.196;5.660;2023-04-01T22:43:13;15.10;;;12.45;;
75320;SDS011;68337;52.196;5.660;2023-04-01T22:48:49;13.73;;;11.43;;
75320;SDS011;68337;52.196;5.660;2023-04-01T22:51:39;15.82;;;12.73;;
75320;SDS011;68337;52.196;5.660;2023-04-01T23:00:22;18.45;;;13.60;;
75320;SDS011;68337;52.196;5.660;2023-04-01T23:05:52;15.35;;;12.90;;
75320;SDS011;68337;52.196;5.660;2023-04-01T23:11:07;18.13;;;13.68;;
75320;SDS011;68337;52.196;5.660;2023-04-01T23:13:45;17.88;;;13.82;;
75320;SDS011;68337;52.196;5.660;2023-04-01T23:16:18;16.95;;;13.30;;
75320;SDS011;68337;52.196;5.660;2023-04-01T23:18:59;15.38;;;13.23;;
75320;SDS011;68337;52.196;5.660;2023-04-01T23:21:39;18.13;;;13.23;;
75320;SDS011;68337;52.196;5.660;2023-04-01T23:24:19;16.58;;;12.77;;
75320;SDS011;68337;52.196;5.660;2023-04-01T23:26:55;14.52;;;12.18;;
75320;SDS011;68337;52.196;5.660;2023-04-01T23:30:02;14.95;;;12.15;;
75320;SDS011;68337;52.196;5.660;2023-04-01T23:32:28;14.55;;;11.23;;
75320;SDS011;68337;52.196;5.660;2023-04-01T23:34:55;14.95;;;12.13;;
75320;SDS011;68337;52.196;5.660;2023-04-01T23:37:23;14.35;;;11.98;;
75320;SDS011;68337;52.196;5.660;2023-04-01T23:39:50;15.02;;;11.70;;
75320;SDS011;68337;52.196;5.660;2023-04-01T23:42:31;15.52;;;13.38;;
75320;SDS011;68337;52.196;5.660;2023-04-01T23:45:05;16.13;;;12.23;;
75320;SDS011;68337;52.196;5.660;2023-04-01T23:47:42;16.38;;;11.80;;
75320;SDS011;68337;52.196;5.660;2023-04-01T23:52:48;14.57;;;11.73;;
75320;SDS011;68337;52.196;5.660;2023-04-01T23:55:27;15.23;;;12.65;;
